Time;durP1;ratioP1;P1;durP2;ratioP2;P2;SDS_P1;SDS_P2;PMS_P1;PMS_P2;Temp;Humidity;BMP_temperature;BMP_pressure;BME280_temperature;BME280_humidity;BME280_pressure;Samples;Min_cycle;Max_cycle;Signal;HPM_P1;HPM_P2
2021/03/06 00:00:15;;;;;;;8.03;4.90;;;;;;;-3.20;70.52;96737.44;5013325;28;20211;-76
2021/03/06 00:02:40;;;;;;;9.57;4.57;;;;;;;-3.23;71.34;96734.16;5029684;28;20184;-76
2021/03/06 00:05:07;;;;;;;6.23;4.40;;;;;;;-3.27;71.27;96735.94;5029564;28;20266;-77
2021/03/06 00:07:32;;;;;;;6.83;4.47;;;;;;;-3.29;71.35;96745.28;5029629;28;20213;-76
2021/03/06 00:09:58;;;;;;;6.33;4.87;;;;;;;-3.36;71.89;96742.91;5027960;28;20231;-77
2021/03/06 00:12:23;;;;;;;7.97;5.17;;;;;;;-3.42;72.37;96736.28;5029476;28;20187;-77
2021/03/06 00:14:48;;;;;;;8.30;5.27;;;;;;;-3.40;72.44;96739.59;5023362;28;20558;-78
2021/03/06 00:17:14;;;;;;;8.03;4.90;;;;;;;-3.42;71.87;96734.56;5013498;28;20245;-77
2021/03/06 00:19:39;;;;;;;8.30;4.83;;;;;;;-3.40;72.96;96739.59;5021594;28;20203;-77
2021/03/06 00:22:04;;;;;;;9.00;5.07;;;;;;;-3.38;72.71;96735.31;5033271;28;20181;-76
2021/03/06 00:24:30;;;;;;;6.77;4.47;;;;;;;-3.37;72.74;96742.06;5032797;28;20193;-77
2021/03/06 00:26:56;;;;;;;6.10;4.57;;;;;;;-3.43;72.18;96740.50;5033194;28;20181;-77
2021/03/06 00:29:21;;;;;;;5.50;4.07;;;;;;;-3.48;72.46;96741.47;5031858;28;20184;-77
2021/03/06 00:31:47;;;;;;;7.67;4.30;;;;;;;-3.41;71.47;96740.47;5033080;28;20195;-77
2021/03/06 00:34:12;;;;;;;6.37;4.00;;;;;;;-3.42;71.52;96733.72;5034551;28;20187;-77
2021/03/06 00:36:37;;;;;;;6.13;4.17;;;;;;;-3.48;72.25;96739.78;5034337;28;20542;-77
2021/03/06 00:39:04;;;;;;;7.47;4.53;;;;;;;-3.48;72.22;96741.47;5051567;28;20201;-77
2021/03/06 00:41:30;;;;;;;6.50;3.77;;;;;;;-3.44;71.92;96736.31;5045335;28;20302;-77
2021/03/06 00:43:55;;;;;;;6.77;4.33;;;;;;;-3.57;72.06;96734.06;5037556;28;20160;-76
2021/03/06 00:46:21;;;;;;;5.83;4.03;;;;;;;-3.57;71.50;96739.97;5037963;28;20364;-76
2021/03/06 00:48:46;;;;;;;6.17;4.43;;;;;;;-3.65;71.92;96735.94;5038157;28;20243;-77
2021/03/06 00:51:11;;;;;;;6.17;4.57;;;;;;;-3.61;72.16;96735.00;5041567;28;20203;-76
2021/03/06 00:53:37;;;;;;;6.90;4.97;;;;;;;-3.71;72.57;96727.59;5057576;28;20659;-76
2021/03/06 00:56:03;;;;;;;7.50;4.60;;;;;;;-3.72;72.78;96725.06;5057379;28;20163;-77
2021/03/06 00:58:28;;;;;;;6.23;4.70;;;;;;;-3.74;73.01;96722.56;5057447;28;20178;-77
2021/03/06 01:00:54;;;;;;;8.40;4.90;;;;;;;-3.72;72.89;96725.88;5051109;28;20261;-76
2021/03/06 01:03:19;;;;;;;6.00;4.50;;;;;;;-3.66;72.13;96727.47;5016622;28;20659;-76
2021/03/06 01:05:44;;;;;;;6.77;4.80;;;;;;;-3.70;72.38;96725.88;5013607;28;20255;-76
2021/03/06 01:08:10;;;;;;;6.20;4.50;;;;;;;-3.73;72.82;96729.31;5013900;28;20218;-77
2021/03/06 01:10:38;;;;;;;6.77;4.67;;;;;;;-3.72;72.34;96725.88;5012432;28;20250;-77
2021/03/06 01:13:05;;;;;;;7.83;5.00;;;;;;;-3.70;72.33;96720.81;5020653;28;20278;-77
2021/03/06 01:15:30;;;;;;;8.20;5.23;;;;;;;-3.74;71.86;96714.09;5033165;28;20656;-76
2021/03/06 01:17:55;;;;;;;6.60;4.67;;;;;;;-3.84;72.60;96710.94;5032101;28;20202;-76
2021/03/06 01:20:21;;;;;;;6.13;4.43;;;;;;;-3.74;71.13;96716.66;5031900;28;20273;-76
2021/03/06 01:22:46;;;;;;;7.40;4.70;;;;;;;-3.65;71.57;96713.91;5031352;28;20656;-76
2021/03/06 01:25:12;;;;;;;6.20;4.37;;;;;;;-3.68;71.37;96711.44;5027981;28;20179;-76
2021/03/06 01:27:37;;;;;;;7.47;4.63;;;;;;;-3.83;71.50;96711.78;5012873;28;20207;-76
2021/03/06 01:30:05;;;;;;;8.40;4.70;;;;;;;-3.84;71.57;96703.31;5011875;28;20195;-76
2021/03/06 01:32:30;;;;;;;6.40;4.70;;;;;;;-3.80;71.25;96704.06;5011771;28;20233;-76
2021/03/06 01:34:56;;;;;;;8.17;4.57;;;;;;;-3.95;72.02;96705.25;5023865;28;20182;-76
2021/03/06 01:37:21;;;;;;;7.67;4.70;;;;;;;-4.00;72.27;96709.56;5031641;28;20619;-76
2021/03/06 01:39:46;;;;;;;6.50;4.30;;;;;;;-3.95;72.07;96705.25;5031762;28;20281;-76
2021/03/06 01:42:12;;;;;;;8.33;4.70;;;;;;;-3.89;71.43;96702.56;5032753;28;20240;-76
2021/03/06 01:44:37;;;;;;;7.20;5.00;;;;;;;-3.93;71.31;96706.06;5029787;28;20186;-76
2021/03/06 01:47:02;;;;;;;5.27;4.53;;;;;;;-3.92;71.47;96700.09;5032605;28;20171;-76
2021/03/06 01:49:28;;;;;;;7.93;4.93;;;;;;;-3.96;72.09;96705.28;5031502;28;20171;-76
2021/03/06 01:51:55;;;;;;;5.83;4.80;;;;;;;-4.00;71.93;96707.03;5031422;28;20174;-76
2021/03/06 01:54:22;;;;;;;7.57;4.63;;;;;;;-4.01;71.69;96700.31;5031191;28;20176;-76
2021/03/06 01:56:48;;;;;;;7.83;4.40;;;;;;;-4.07;72.34;96701.25;5029634;28;20233;-76
2021/03/06 01:59:14;;;;;;;7.87;4.60;;;;;;;-4.14;72.47;96697.19;5032360;28;20580;-76
2021/03/06 02:01:39;;;;;;;8.00;5.30;;;;;;;-4.18;72.49;96694.72;5031144;28;20190;-76
2021/03/06 02:04:05;;;;;;;6.47;4.80;;;;;;;-4.23;72.84;96696.53;5031132;28;20186;-76
2021/03/06 02:06:30;;;;;;;7.93;4.90;;;;;;;-4.18;72.55;96689.66;5029188;28;20262;-76
2021/03/06 02:08:55;;;;;;;6.67;5.07;;;;;;;-4.15;72.15;96690.44;5031118;28;20257;-76
2021/03/06 02:11:57;;;;;;;7.93;4.83;;;;;;;-4.13;72.70;96698.84;5032006;28;20206;-76
2021/03/06 02:14:56;;;;;;;7.53;4.87;;;;;;;-4.05;70.93;96691.09;5031885;28;20198;-76
2021/03/06 02:17:30;;;;;;;6.80;4.60;;;;;;;-4.19;72.67;96688.00;5030390;28;20202;-76
2021/03/06 02:20:10;;;;;;;8.43;4.40;;;;;;;-4.15;71.52;96689.59;5030848;28;20198;-76
2021/03/06 02:23:01;;;;;;;5.97;4.77;;;;;;;-4.22;72.44;96685.53;5030772;28;20182;-76
2021/03/06 02:25:58;;;;;;;6.97;4.60;;;;;;;-4.22;71.17;96678.75;5030731;28;20619;-76
2021/03/06 02:28:28;;;;;;;7.37;5.10;;;;;;;-4.30;71.74;96676.38;5017598;28;20190;-76
2021/03/06 02:30:55;;;;;;;8.73;5.10;;;;;;;-4.20;70.68;96674.47;5010940;28;20199;-75
2021/03/06 02:33:22;;;;;;;6.13;4.70;;;;;;;-4.28;71.73;96669.56;5010962;28;20185;-75
2021/03/06 02:35:48;;;;;;;6.50;4.67;;;;;;;-4.33;71.42;96678.09;5010578;28;20191;-76
2021/03/06 02:38:15;;;;;;;7.87;4.63;;;;;;;-4.39;71.65;96681.63;5010116;28;20229;-76
2021/03/06 02:40:41;;;;;;;7.30;5.40;;;;;;;-4.43;71.62;96685.06;5010799;28;20697;-76
2021/03/06 02:43:09;;;;;;;5.40;4.43;;;;;;;-4.35;71.46;96682.38;5010809;28;20175;-76
2021/03/06 02:45:34;;;;;;;7.53;5.17;;;;;;;-4.33;71.62;96684.03;5010682;28;20183;-76
2021/03/06 02:48:00;;;;;;;6.50;4.97;;;;;;;-4.37;71.28;96687.50;5010752;28;20167;-76
2021/03/06 02:50:25;;;;;;;5.90;5.00;;;;;;;-4.21;70.00;96689.72;5028515;28;20289;-76
2021/03/06 02:52:51;;;;;;;6.47;4.90;;;;;;;-4.30;70.04;96686.50;5031647;28;20642;-76
2021/03/06 02:55:16;;;;;;;7.27;4.80;;;;;;;-4.34;70.73;96689.13;5013481;28;20178;-76
2021/03/06 02:57:54;;;;;;;8.90;4.97;;;;;;;-4.47;70.59;96677.56;5013887;28;20249;-75
2021/03/06 03:00:41;;;;;;;5.07;4.57;;;;;;;-4.41;70.20;96678.28;5045025;28;20277;-75
2021/03/06 03:03:41;;;;;;;6.73;5.00;;;;;;;-4.28;69.93;96674.63;5030294;28;20185;-76
2021/03/06 03:06:15;;;;;;;5.57;4.33;;;;;;;-4.33;69.72;96671.38;5031802;28;20654;-75
2021/03/06 03:08:47;;;;;;;5.43;4.60;;;;;;;-4.47;70.69;96675.03;5030287;28;20260;-76
2021/03/06 03:11:14;;;;;;;6.43;4.60;;;;;;;-4.49;70.52;96674.22;5044945;28;20213;-75
2021/03/06 03:13:59;;;;;;;6.33;4.87;;;;;;;-4.49;70.65;96671.69;5030137;28;20201;-75
2021/03/06 03:16:34;;;;;;;8.37;4.60;;;;;;;-4.48;69.74;96678.44;5029836;28;20681;-76
2021/03/06 03:19:03;;;;;;;5.57;4.80;;;;;;;-4.44;69.25;96677.50;5030175;28;20265;-75
2021/03/06 03:21:30;;;;;;;7.63;5.13;;;;;;;-4.37;68.33;96676.50;5019700;28;20195;-75
2021/03/06 03:24:08;;;;;;;5.67;4.53;;;;;;;-4.50;69.30;96673.38;5011613;28;20235;-75
2021/03/06 03:26:36;;;;;;;6.90;4.97;;;;;;;-4.48;69.09;96676.72;5009968;28;20171;-76
2021/03/06 03:29:03;;;;;;;5.87;4.90;;;;;;;-4.49;69.01;96672.53;5010094;28;20222;-75
2021/03/06 03:31:28;;;;;;;6.30;5.20;;;;;;;-4.48;69.37;96666.59;5013683;28;20265;-75
2021/03/06 03:33:54;;;;;;;8.60;5.17;;;;;;;-4.48;68.67;96671.66;5029968;28;20178;-75
2021/03/06 03:36:23;;;;;;;7.00;4.77;;;;;;;-4.45;67.64;96666.50;5030832;28;20178;-75
2021/03/06 03:38:48;;;;;;;6.07;4.60;;;;;;;-4.38;66.61;96668.06;5029835;28;20197;-75
2021/03/06 03:41:14;;;;;;;7.07;4.97;;;;;;;-4.43;67.52;96674.09;5013374;28;20666;-75
2021/03/06 03:43:40;;;;;;;6.50;4.57;;;;;;;-4.39;67.24;96676.53;5012883;28;20178;-75
2021/03/06 03:46:06;;;;;;;6.07;4.60;;;;;;;-4.37;66.70;96674.81;5013090;28;20171;-75
2021/03/06 03:48:32;;;;;;;6.17;4.23;;;;;;;-4.37;66.10;96674.81;5029872;28;20594;-75
2021/03/06 03:50:57;;;;;;;7.00;4.83;;;;;;;-4.42;66.36;96681.66;5033530;28;20202;-75
2021/03/06 03:53:23;;;;;;;6.90;4.33;;;;;;;-4.48;66.54;96684.34;5033095;28;20413;-75
2021/03/06 03:55:48;;;;;;;8.60;4.73;;;;;;;-4.51;67.07;96686.91;5033417;28;20178;-75
2021/03/06 03:58:14;;;;;;;6.43;4.63;;;;;;;-4.50;66.65;96688.59;5033442;28;20195;-75
2021/03/06 04:00:40;;;;;;;5.87;5.23;;;;;;;-4.60;67.04;96692.97;5033606;28;20197;-76
2021/03/06 04:03:07;;;;;;;5.17;4.63;;;;;;;-4.66;67.60;96687.22;5032076;28;20185;-75
2021/03/06 04:05:32;;;;;;;5.63;4.57;;;;;;;-4.61;67.06;96693.00;5033081;28;20178;-75
2021/03/06 04:07:58;;;;;;;5.87;4.83;;;;;;;-4.52;67.01;96692.84;5034446;28;20174;-75
2021/03/06 04:10:24;;;;;;;6.80;4.60;;;;;;;-4.62;67.78;96691.34;5033217;28;20194;-75
2021/03/06 04:12:52;;;;;;;6.30;4.90;;;;;;;-4.74;67.83;96696.66;5021779;28;20186;-75
2021/03/06 04:15:18;;;;;;;7.00;4.93;;;;;;;-4.60;67.14;96692.16;5013190;28;20186;-75
2021/03/06 04:17:44;;;;;;;5.57;4.50;;;;;;;-4.72;67.94;96699.97;5013405;28;20195;-76
2021/03/06 04:20:12;;;;;;;4.83;4.23;;;;;;;-4.81;68.50;96703.50;5014554;28;20206;-75
2021/03/06 04:22:37;;;;;;;4.70;4.20;;;;;;;-4.76;68.03;96703.44;5014451;28;20345;-75
2021/03/06 04:25:05;;;;;;;5.90;4.43;;;;;;;-4.73;67.67;96706.75;5013047;28;20714;-75
2021/03/06 04:27:30;;;;;;;5.53;3.80;;;;;;;-4.75;67.33;96703.41;5013286;28;20179;-75
2021/03/06 04:29:55;;;;;;;6.87;4.50;;;;;;;-4.83;68.39;96705.25;5012926;28;20694;-75
2021/03/06 04:32:21;;;;;;;6.03;4.67;;;;;;;-4.81;67.61;96706.06;5013023;28;20176;-75
2021/03/06 04:34:46;;;;;;;5.30;4.40;;;;;;;-4.85;68.30;96700.22;5012511;28;20260;-75
2021/03/06 04:37:11;;;;;;;6.03;4.33;;;;;;;-4.85;68.29;96697.69;5013008;28;20201;-75
2021/03/06 04:39:37;;;;;;;6.47;4.77;;;;;;;-4.93;68.63;96694.44;5012967;28;20207;-75
2021/03/06 04:42:02;;;;;;;5.03;4.20;;;;;;;-4.91;68.56;96700.31;5013083;28;20206;-75
2021/03/06 04:44:27;;;;;;;7.23;4.33;;;;;;;-5.02;69.17;96696.31;5012341;28;20187;-75
2021/03/06 04:46:53;;;;;;;5.47;4.40;;;;;;;-4.94;68.60;96692.78;5012765;28;20181;-75
2021/03/06 04:49:18;;;;;;;5.57;4.37;;;;;;;-4.98;68.99;96697.91;5012805;28;20183;-75
2021/03/06 04:51:44;;;;;;;6.17;4.20;;;;;;;-5.00;69.38;96700.47;5012884;28;20658;-75
2021/03/06 04:54:09;;;;;;;4.87;3.97;;;;;;;-5.01;68.22;96700.50;5014240;28;20167;-75
2021/03/06 04:56:35;;;;;;;5.07;4.57;;;;;;;-5.04;68.56;96706.44;5031786;28;20190;-75
2021/03/06 04:59:00;;;;;;;7.37;4.20;;;;;;;-5.06;69.34;96703.09;5033675;28;20328;-75
2021/03/06 05:01:25;;;;;;;4.40;4.00;;;;;;;-5.16;69.65;96706.63;5033348;28;20195;-75
2021/03/06 05:03:51;;;;;;;6.87;4.30;;;;;;;-5.13;69.44;96701.50;5032322;28;20205;-75
2021/03/06 05:06:16;;;;;;;5.53;4.37;;;;;;;-5.07;69.71;96710.72;5020070;28;20210;-75
2021/03/06 05:08:41;;;;;;;6.97;4.50;;;;;;;-5.20;69.64;96710.09;5013828;28;20267;-75
2021/03/06 05:11:07;;;;;;;5.57;4.93;;;;;;;-5.07;69.36;96705.66;5028946;28;20221;-75
2021/03/06 05:13:33;;;;;;;4.93;4.40;;;;;;;-5.09;69.31;96712.44;5012408;28;20172;-76
2021/03/06 05:15:58;;;;;;;6.77;4.33;;;;;;;-5.17;69.17;96710.03;5031433;28;20757;-75
2021/03/06 05:18:23;;;;;;;4.47;4.03;;;;;;;-5.20;69.58;96708.41;5031880;28;20218;-75
2021/03/06 05:20:49;;;;;;;4.70;4.20;;;;;;;-5.29;70.04;96715.31;5032073;28;20689;-75
2021/03/06 05:23:14;;;;;;;5.57;4.10;;;;;;;-5.31;70.41;96720.38;5031960;28;20268;-75
2021/03/06 05:25:40;;;;;;;6.50;4.37;;;;;;;-5.38;70.79;96716.28;5032990;28;20257;-75
2021/03/06 05:28:05;;;;;;;7.03;4.97;;;;;;;-5.41;71.34;96717.16;5016377;28;20179;-75
2021/03/06 05:30:30;;;;;;;5.37;4.60;;;;;;;-5.40;71.10;96715.44;5028160;28;20296;-75
2021/03/06 05:32:56;;;;;;;6.20;4.57;;;;;;;-5.51;71.01;96720.69;5012078;28;20194;-75
2021/03/06 05:35:21;;;;;;;5.80;4.10;;;;;;;-5.44;70.31;96717.19;5011885;28;20183;-76
2021/03/06 05:37:46;;;;;;;6.20;5.00;;;;;;;-5.47;70.21;96714.72;5011431;28;20249;-75
2021/03/06 05:40:12;;;;;;;7.47;4.87;;;;;;;-5.43;70.68;96715.50;5011827;28;20218;-75
2021/03/06 05:42:37;;;;;;;4.80;3.93;;;;;;;-5.43;70.46;96713.81;5013112;28;20190;-75
2021/03/06 05:45:05;;;;;;;5.17;4.67;;;;;;;-5.33;69.34;96711.13;5011493;28;20665;-75
2021/03/06 05:47:30;;;;;;;5.03;4.53;;;;;;;-5.39;70.20;96712.06;5012011;28;20220;-75
2021/03/06 05:49:56;;;;;;;6.37;5.23;;;;;;;-5.39;69.57;96708.69;5030531;28;20287;-75
2021/03/06 05:52:21;;;;;;;9.00;5.03;;;;;;;-5.40;69.75;96712.91;5031535;28;20186;-75
2021/03/06 05:54:48;;;;;;;9.10;4.83;;;;;;;-5.30;69.18;96709.41;5031159;28;20194;-75
2021/03/06 05:57:15;;;;;;;6.10;5.03;;;;;;;-5.29;69.71;96702.66;5030799;28;20666;-74
2021/03/06 05:59:41;;;;;;;5.93;4.43;;;;;;;-5.36;69.03;96708.66;5030167;28;20214;-75
2021/03/06 06:02:06;;;;;;;7.57;4.77;;;;;;;-5.37;69.57;96712.88;5022816;28;20195;-75
2021/03/06 06:04:32;;;;;;;6.60;4.97;;;;;;;-5.47;70.34;96716.41;5054731;28;20232;-75
2021/03/06 06:07:00;;;;;;;6.13;4.77;;;;;;;-5.35;69.85;96716.22;5041095;28;20212;-76
2021/03/06 06:09:25;;;;;;;9.50;5.03;;;;;;;-5.32;69.10;96711.09;5039897;28;20190;-75
2021/03/06 06:11:51;;;;;;;6.73;4.93;;;;;;;-5.36;69.92;96706.13;5010707;28;20190;-76
2021/03/06 06:14:16;;;;;;;5.17;4.53;;;;;;;-5.29;69.65;96705.19;5011134;28;20654;-76
2021/03/06 06:16:41;;;;;;;5.37;4.60;;;;;;;-5.33;69.64;96708.59;5012523;28;20309;-76
2021/03/06 06:19:07;;;;;;;5.37;4.57;;;;;;;-5.30;69.65;96714.47;5011336;28;20183;-76
2021/03/06 06:21:46;;;;;;;6.53;4.87;;;;;;;-5.32;68.94;96707.75;5026577;28;20649;-76
2021/03/06 06:24:13;;;;;;;4.73;4.23;;;;;;;-5.32;69.78;96715.34;5047351;28;20661;-76
2021/03/06 06:26:39;;;;;;;6.93;4.60;;;;;;;-5.34;69.72;96717.06;5032086;28;20172;-75
2021/03/06 06:29:05;;;;;;;6.17;4.77;;;;;;;-5.26;69.58;96720.31;5031033;28;20261;-75
2021/03/06 06:31:30;;;;;;;5.23;4.73;;;;;;;-5.30;69.75;96723.72;5020920;28;20294;-75
2021/03/06 06:33:56;;;;;;;5.67;4.67;;;;;;;-5.23;69.60;96726.16;5011158;28;20183;-75
2021/03/06 06:36:35;;;;;;;8.53;4.43;;;;;;;-5.17;69.82;96736.19;5010763;28;20212;-75
2021/03/06 06:39:03;;;;;;;5.73;5.13;;;;;;;-5.16;69.54;96734.50;5011044;28;20183;-75
2021/03/06 06:41:51;;;;;;;7.70;4.67;;;;;;;-5.10;69.83;96736.13;5026970;28;20207;-75
2021/03/06 06:44:16;;;;;;;9.60;5.00;;;;;;;-5.06;69.59;96725.88;5010796;28;20267;-75
2021/03/06 06:46:42;;;;;;;4.80;4.27;;;;;;;-4.99;69.06;96734.22;5028118;28;20595;-75
2021/03/06 06:49:07;;;;;;;6.23;5.27;;;;;;;-4.98;68.88;96726.59;5030733;28;20571;-75
2021/03/06 06:51:33;;;;;;;7.90;5.20;;;;;;;-4.91;68.42;96730.72;5035889;28;20703;-75
2021/03/06 06:54:13;;;;;;;6.97;5.03;;;;;;;-4.84;68.16;96734.00;5041893;28;20189;-75
2021/03/06 06:56:40;;;;;;;6.57;4.70;;;;;;;-4.86;68.59;96734.03;5038737;28;20201;-75
2021/03/06 06:59:08;;;;;;;5.57;4.40;;;;;;;-4.79;67.37;96741.50;5026886;28;20279;-75
2021/03/06 07:01:36;;;;;;;7.90;5.60;;;;;;;-4.66;67.13;96740.44;5037310;28;20217;-75
2021/03/06 07:04:05;;;;;;;7.20;5.20;;;;;;;-4.50;67.47;96741.00;5041396;28;20240;-74
2021/03/06 07:06:32;;;;;;;6.57;4.97;;;;;;;-4.59;68.16;96744.53;5049490;28;20175;-75
2021/03/06 07:09:05;;;;;;;7.40;5.20;;;;;;;-4.59;67.49;96752.16;5043652;28;20563;-75
2021/03/06 07:11:30;;;;;;;4.90;4.47;;;;;;;-4.52;67.87;96747.78;5042199;28;20689;-75
2021/03/06 07:13:55;;;;;;;7.03;4.67;;;;;;;-4.37;67.13;96750.88;5023495;28;20197;-77
2021/03/06 07:16:21;;;;;;;8.07;4.67;;;;;;;-4.37;67.18;96760.19;5029278;28;20174;-75
2021/03/06 07:18:59;;;;;;;5.60;4.73;;;;;;;-4.33;66.91;96749.97;5025070;28;20697;-75
2021/03/06 07:21:24;;;;;;;5.90;5.00;;;;;;;-4.24;66.44;96760.78;5030371;28;20237;-76
2021/03/06 07:23:49;;;;;;;5.87;4.73;;;;;;;-4.15;65.85;96764.00;5027514;28;20210;-76
2021/03/06 07:26:15;;;;;;;7.33;4.53;;;;;;;-4.00;65.73;96761.16;5031359;28;20301;-76
2021/03/06 07:28:40;;;;;;;6.07;4.30;;;;;;;-3.94;65.34;96765.28;5041857;28;20189;-75
2021/03/06 07:31:06;;;;;;;4.73;4.20;;;;;;;-3.91;64.53;96770.28;5043775;28;20203;-76
2021/03/06 07:33:31;;;;;;;6.23;4.67;;;;;;;-3.84;64.00;96771.00;5047293;28;20188;-75
2021/03/06 07:35:56;;;;;;;7.70;4.57;;;;;;;-3.78;64.01;96786.97;5041117;28;20571;-75
2021/03/06 07:38:22;;;;;;;5.90;4.63;;;;;;;-3.72;64.58;96775.81;5053118;28;20201;-76
2021/03/06 07:40:53;;;;;;;5.57;4.67;;;;;;;-3.62;64.25;96779.00;5069614;28;20206;-76
2021/03/06 07:43:26;;;;;;;5.80;4.27;;;;;;;-3.59;63.84;96776.44;5066044;28;20304;-76
2021/03/06 07:45:52;;;;;;;6.17;4.73;;;;;;;-3.63;64.07;96784.97;5035435;28;20194;-75
2021/03/06 07:48:21;;;;;;;7.07;4.77;;;;;;;-3.50;63.94;96794.84;5014045;28;20183;-76
2021/03/06 07:50:48;;;;;;;5.23;4.73;;;;;;;-3.48;63.83;96799.88;5013840;28;20781;-76
2021/03/06 07:53:15;;;;;;;5.17;4.60;;;;;;;-3.47;64.32;96789.69;5013906;28;20624;-75
2021/03/06 07:55:40;;;;;;;6.03;4.63;;;;;;;-3.53;63.71;96792.38;5013716;28;20229;-75
2021/03/06 07:58:19;;;;;;;7.43;5.20;;;;;;;-3.43;63.78;96791.31;5014627;28;20203;-75
2021/03/06 08:00:56;;;;;;;6.97;5.27;;;;;;;-3.37;63.52;96802.19;5013710;28;20202;-75
2021/03/06 08:03:27;;;;;;;6.33;5.50;;;;;;;-3.28;63.22;96807.06;5013875;28;20179;-76
2021/03/06 08:05:56;;;;;;;6.60;5.03;;;;;;;-3.22;63.43;96804.41;5014586;28;20210;-75
2021/03/06 08:08:35;;;;;;;7.73;5.03;;;;;;;-3.13;64.11;96801.66;5028906;28;20194;-75
2021/03/06 08:11:03;;;;;;;7.93;5.13;;;;;;;-3.08;63.30;96804.94;5030604;28;20259;-75
2021/03/06 08:13:39;;;;;;;7.30;5.40;;;;;;;-3.05;63.44;96804.03;5033348;28;20187;-75
2021/03/06 08:16:19;;;;;;;7.77;5.40;;;;;;;-3.06;63.61;96805.75;5031611;28;20208;-75
2021/03/06 08:18:45;;;;;;;7.40;5.37;;;;;;;-2.96;64.09;96811.44;5027339;28;20587;-74
2021/03/06 08:21:36;;;;;;;7.13;5.30;;;;;;;-2.80;64.10;96814.47;5045540;28;20245;-77
2021/03/06 08:24:14;;;;;;;7.17;5.40;;;;;;;-2.73;63.49;96809.22;5022729;28;20355;-79
2021/03/06 08:26:39;;;;;;;6.83;5.30;;;;;;;-2.66;63.33;96803.09;5033888;28;20217;-78
2021/03/06 08:29:20;;;;;;;8.00;5.23;;;;;;;-2.63;63.88;96807.28;5029370;28;20573;-78
2021/03/06 08:31:45;;;;;;;8.80;5.47;;;;;;;-2.69;63.36;96808.25;5033334;28;20304;-76
2021/03/06 08:34:35;;;;;;;9.27;5.80;;;;;;;-2.55;63.55;96809.66;5032752;28;20290;-76
2021/03/06 08:37:19;;;;;;;7.00;5.90;;;;;;;-2.50;62.82;96808.63;5032803;28;20229;-76
2021/03/06 08:39:54;;;;;;;6.70;6.00;;;;;;;-2.42;62.74;96811.84;5024267;28;20692;-77
2021/03/06 08:42:27;;;;;;;10.17;5.90;;;;;;;-2.42;63.80;96801.66;5014278;28;20649;-76
2021/03/06 08:44:54;;;;;;;7.07;5.67;;;;;;;-2.28;64.02;96807.25;5012906;28;20654;-77
2021/03/06 08:47:32;;;;;;;7.03;5.33;;;;;;;-2.17;63.69;96804.41;5013115;28;20196;-76
2021/03/06 08:49:59;;;;;;;7.23;5.73;;;;;;;-2.16;63.30;96808.63;5004311;28;20644;-76
2021/03/06 08:52:26;;;;;;;8.47;5.97;;;;;;;-2.13;63.49;96806.00;5032799;28;20182;-76
2021/03/06 08:54:52;;;;;;;8.73;5.60;;;;;;;-2.11;64.04;96806.81;5033552;28;20199;-77
2021/03/06 08:57:25;;;;;;;7.87;6.47;;;;;;;-2.08;63.53;96794.00;5032250;28;20198;-75
2021/03/06 08:59:50;;;;;;;7.57;6.27;;;;;;;-2.01;63.34;96800.59;5033918;28;20290;-74
2021/03/06 09:02:17;;;;;;;6.97;5.77;;;;;;;-1.95;63.63;96801.28;5025713;28;20187;-76
2021/03/06 09:04:43;;;;;;;9.73;6.23;;;;;;;-1.85;63.77;96805.28;5032101;28;20179;-76
2021/03/06 09:07:10;;;;;;;7.60;5.90;;;;;;;-1.69;63.32;96798.88;5032735;28;20192;-76
2021/03/06 09:09:35;;;;;;;8.03;6.20;;;;;;;-1.68;61.79;96810.72;5048695;28;20577;-78
2021/03/06 09:12:01;;;;;;;10.10;6.70;;;;;;;-1.59;62.99;96799.44;5030483;28;20195;-75
2021/03/06 09:14:27;;;;;;;8.93;6.43;;;;;;;-1.58;61.10;96803.69;5010806;28;20188;-76
2021/03/06 09:16:53;;;;;;;10.03;6.73;;;;;;;-1.59;61.26;96804.53;5035160;28;20617;-76
2021/03/06 09:19:25;;;;;;;8.60;6.40;;;;;;;-1.54;61.82;96798.44;5031306;28;20723;-77
2021/03/06 09:22:04;;;;;;;10.97;8.77;;;;;;;-1.47;61.48;96802.47;5010850;28;20187;-77
2021/03/06 09:24:48;;;;;;;9.57;6.40;;;;;;;-1.24;61.25;96811.16;5031824;28;20186;-76
2021/03/06 09:27:18;;;;;;;8.70;6.10;;;;;;;-1.24;60.77;96806.88;5032086;28;20665;-76
2021/03/06 09:29:45;;;;;;;8.50;6.97;;;;;;;-1.16;61.45;96793.94;5031833;28;20203;-76
2021/03/06 09:32:10;;;;;;;10.40;7.07;;;;;;;-1.03;61.82;96799.50;5013420;28;20184;-76
2021/03/06 09:34:36;;;;;;;13.40;9.40;;;;;;;-0.97;62.19;96800.16;5011818;28;20190;-76
2021/03/06 09:37:18;;;;;;;16.77;7.47;;;;;;;-0.98;60.73;96798.47;5029067;28;20255;-76
2021/03/06 09:39:44;;;;;;;8.43;6.30;;;;;;;-0.91;60.30;96799.13;5048392;28;20201;-76
2021/03/06 09:42:15;;;;;;;9.17;6.37;;;;;;;-0.79;60.97;96797.91;5031989;28;20242;-78
2021/03/06 09:44:47;;;;;;;9.03;6.13;;;;;;;-0.73;60.82;96803.63;5031418;28;20265;-77
2021/03/06 09:47:20;;;;;;;7.67;6.73;;;;;;;-0.89;59.24;96802.44;5027359;28;20282;-74
2021/03/06 09:49:47;;;;;;;9.57;6.83;;;;;;;-0.75;59.03;96794.38;5011709;28;20198;-76
2021/03/06 09:52:12;;;;;;;7.57;6.57;;;;;;;-0.55;60.28;96797.13;5025640;28;20182;-76
2021/03/06 09:54:38;;;;;;;7.60;5.63;;;;;;;-0.43;59.90;96796.72;5024108;28;20283;-77
2021/03/06 09:57:06;;;;;;;9.27;6.07;;;;;;;-0.44;58.70;96800.16;5031086;28;20205;-77
2021/03/06 09:59:39;;;;;;;8.47;6.43;;;;;;;-0.35;58.42;96799.03;5031175;28;20179;-76
2021/03/06 10:02:10;;;;;;;12.30;6.23;;;;;;;-0.33;59.56;96803.19;5047553;28;20316;-76
2021/03/06 10:04:36;;;;;;;7.23;6.13;;;;;;;-0.23;59.46;96803.72;5043436;28;20647;-76
2021/03/06 10:07:07;;;;;;;8.40;6.53;;;;;;;-0.38;57.74;96797.41;4995564;28;20186;-77
2021/03/06 10:09:33;;;;;;;7.67;6.13;;;;;;;-0.52;57.44;96794.47;5011659;28;20224;-77
2021/03/06 10:12:04;;;;;;;7.77;6.60;;;;;;;-0.33;58.05;96795.53;5011635;28;20216;-76
2021/03/06 10:14:29;;;;;;;7.90;6.03;;;;;;;-0.14;57.40;96792.38;5011676;28;20182;-76
2021/03/06 10:16:59;;;;;;;7.33;5.97;;;;;;;-0.02;57.93;96797.88;5012965;28;20206;-77
2021/03/06 10:19:29;;;;;;;10.00;6.30;;;;;;;0.02;58.62;96797.78;5011736;28;20189;-77
2021/03/06 10:22:01;;;;;;;7.30;5.33;;;;;;;0.01;57.11;96791.84;4995216;28;20179;-77
2021/03/06 10:24:26;;;;;;;6.80;6.00;;;;;;;0.05;56.81;96795.13;4994860;28;20204;-77
2021/03/06 10:26:57;;;;;;;9.13;6.30;;;;;;;0.04;55.38;96796.84;5012677;28;20646;-78
2021/03/06 10:29:24;;;;;;;7.27;6.07;;;;;;;-0.07;55.45;96792.09;5011352;28;20179;-76
2021/03/06 10:32:03;;;;;;;7.30;5.87;;;;;;;0.11;55.37;96788.09;5012209;28;20198;-77
2021/03/06 10:34:31;;;;;;;7.17;5.13;;;;;;;0.02;54.60;96792.69;5011166;28;20210;-76
2021/03/06 10:37:15;;;;;;;7.37;5.67;;;;;;;0.23;55.25;96787.63;5012138;28;20210;-77
2021/03/06 10:40:00;;;;;;;7.37;5.87;;;;;;;0.32;55.03;96789.03;5012446;28;20209;-76
2021/03/06 10:42:44;;;;;;;7.67;5.37;;;;;;;0.59;55.25;96782.06;5011208;28;20228;-76
2021/03/06 10:45:22;;;;;;;5.97;4.90;;;;;;;0.63;54.53;96781.09;5012181;28;20175;-76
2021/03/06 10:47:49;;;;;;;6.70;5.07;;;;;;;0.64;55.12;96792.16;5018410;28;20297;-77
2021/03/06 10:50:26;;;;;;;8.37;5.53;;;;;;;0.69;53.84;96792.78;5021372;28;20216;-77
2021/03/06 10:53:12;;;;;;;7.47;5.37;;;;;;;0.70;52.94;96792.72;5030166;28;20261;-77
2021/03/06 10:55:38;;;;;;;6.57;5.17;;;;;;;0.65;53.55;96793.81;5030363;28;20657;-78
2021/03/06 10:58:04;;;;;;;6.67;5.20;;;;;;;0.81;53.17;96800.84;5028643;28;20213;-77
2021/03/06 11:00:29;;;;;;;6.23;4.97;;;;;;;0.80;50.30;96794.06;5013613;28;20194;-78
2021/03/06 11:02:56;;;;;;;7.53;6.10;;;;;;;0.70;52.05;96797.84;5030273;28;20258;-78
2021/03/06 11:05:22;;;;;;;7.63;6.10;;;;;;;0.92;51.65;96797.88;5030354;28;20634;-76
2021/03/06 11:07:48;;;;;;;7.20;5.07;;;;;;;0.87;51.34;96794.66;5031397;28;20219;-77
2021/03/06 11:10:15;;;;;;;7.73;5.50;;;;;;;0.78;50.34;96793.28;5023883;28;20249;-77
2021/03/06 11:13:13;;;;;;;10.57;5.37;;;;;;;0.94;50.48;96792.72;5026477;28;20205;-75
2021/03/06 11:15:49;;;;;;;9.37;4.77;;;;;;;1.11;51.31;96795.44;4990196;28;20198;-75
2021/03/06 11:18:15;;;;;;;8.40;4.50;;;;;;;1.23;50.84;96792.41;5008948;28;20273;-75
2021/03/06 11:20:40;;;;;;;5.63;4.73;;;;;;;1.15;50.38;96799.56;5006152;28;20210;-74
2021/03/06 11:23:06;;;;;;;6.60;4.90;;;;;;;1.11;51.58;96793.72;5010647;28;20185;-75
2021/03/06 11:25:32;;;;;;;7.13;5.33;;;;;;;1.41;51.16;96788.28;4979644;28;20262;-75
2021/03/06 11:28:03;;;;;;;4.83;4.20;;;;;;;1.45;48.84;96783.88;4973257;28;20613;-75
2021/03/06 11:30:36;;;;;;;5.60;5.07;;;;;;;1.51;48.58;96796.44;4980857;28;20265;-75
2021/03/06 11:33:04;;;;;;;5.73;4.60;;;;;;;1.56;49.27;96786.84;4992983;28;20211;-75
2021/03/06 11:35:29;;;;;;;5.57;4.47;;;;;;;1.56;48.12;96782.53;5008883;28;20262;-75
2021/03/06 11:37:55;;;;;;;5.77;4.43;;;;;;;1.61;48.84;96785.75;4989721;28;20217;-75
2021/03/06 11:40:24;;;;;;;8.23;5.23;;;;;;;1.55;48.13;96777.47;5006335;28;20210;-74